sensor_id;sensor_type;location;lat;lon;timestamp;P1;durP1;ratioP1;P2;durP2;ratioP2
69714;SDS011;56981;53.532;49.398;2023-02-22T00:00:29;7.75;;;4.70;;
69714;SDS011;56981;53.532;49.398;2023-02-22T00:03:14;9.25;;;4.85;;
69714;SDS011;56981;53.532;49.398;2023-02-22T00:05:44;11.73;;;6.00;;
69714;SDS011;56981;53.532;49.398;2023-02-22T00:08:12;11.00;;;3.83;;
69714;SDS011;56981;53.532;49.398;2023-02-22T00:10:39;4.03;;;2.85;;
69714;SDS011;56981;53.532;49.398;2023-02-22T00:13:06;10.15;;;4.88;;
69714;SDS011;56981;53.532;49.398;2023-02-22T00:15:34;8.48;;;4.70;;
69714;SDS011;56981;53.532;49.398;2023-02-22T00:18:01;8.68;;;4.32;;
69714;SDS011;56981;53.532;49.398;2023-02-22T00:20:28;12.32;;;6.60;;
69714;SDS011;56981;53.532;49.398;2023-02-22T00:22:55;10.93;;;5.68;;
69714;SDS011;56981;53.532;49.398;2023-02-22T00:25:22;10.43;;;4.97;;
69714;SDS011;56981;53.532;49.398;2023-02-22T00:27:50;13.82;;;5.45;;
69714;SDS011;56981;53.532;49.398;2023-02-22T00:30:22;4.22;;;2.10;;
69714;SDS011;56981;53.532;49.398;2023-02-22T00:32:51;12.13;;;5.55;;
69714;SDS011;56981;53.532;49.398;2023-02-22T00:35:21;9.63;;;4.95;;
69714;SDS011;56981;53.532;49.398;2023-02-22T00:37:52;9.80;;;5.15;;
69714;SDS011;56981;53.532;49.398;2023-02-22T00:40:28;9.80;;;4.90;;
69714;SDS011;56981;53.532;49.398;2023-02-22T00:42:57;10.75;;;5.15;;
69714;SDS011;56981;53.532;49.398;2023-02-22T00:45:25;12.52;;;4.82;;
69714;SDS011;56981;53.532;49.398;2023-02-22T00:47:52;8.80;;;4.00;;
69714;SDS011;56981;53.532;49.398;2023-02-22T00:50:19;7.15;;;3.90;;
69714;SDS011;56981;53.532;49.398;2023-02-22T00:52:46;9.75;;;4.25;;
69714;SDS011;56981;53.532;49.398;2023-02-22T00:55:20;11.77;;;5.07;;
69714;SDS011;56981;53.532;49.398;2023-02-22T00:57:48;10.60;;;4.63;;
69714;SDS011;56981;53.532;49.398;2023-02-22T01:00:20;9.98;;;4.47;;
69714;SDS011;56981;53.532;49.398;2023-02-22T01:02:48;9.93;;;5.00;;
69714;SDS011;56981;53.532;49.398;2023-02-22T01:05:15;12.27;;;5.78;;
69714;SDS011;56981;53.532;49.398;2023-02-22T01:07:47;16.83;;;6.85;;
69714;SDS011;56981;53.532;49.398;2023-02-22T01:10:14;15.70;;;7.45;;
69714;SDS011;56981;53.532;49.398;2023-02-22T01:12:44;17.48;;;7.15;;
69714;SDS011;56981;53.532;49.398;2023-02-22T01:15:11;21.58;;;7.95;;
69714;SDS011;56981;53.532;49.398;2023-02-22T01:17:38;11.35;;;5.70;;
69714;SDS011;56981;53.532;49.398;2023-02-22T01:20:06;14.98;;;7.07;;
69714;SDS011;56981;53.532;49.398;2023-02-22T01:22:40;17.52;;;6.88;;
69714;SDS011;56981;53.532;49.398;2023-02-22T01:25:08;22.38;;;8.75;;
69714;SDS011;56981;53.532;49.398;2023-02-22T01:27:37;22.15;;;7.70;;
69714;SDS011;56981;53.532;49.398;2023-02-22T01:30:03;22.02;;;7.20;;
69714;SDS011;56981;53.532;49.398;2023-02-22T01:32:33;19.48;;;7.68;;
69714;SDS011;56981;53.532;49.398;2023-02-22T01:35:01;21.70;;;7.78;;
69714;SDS011;56981;53.532;49.398;2023-02-22T01:37:33;17.65;;;6.72;;
69714;SDS011;56981;53.532;49.398;2023-02-22T01:39:59;8.60;;;3.55;;
69714;SDS011;56981;53.532;49.398;2023-02-22T01:42:26;15.57;;;6.88;;
69714;SDS011;56981;53.532;49.398;2023-02-22T01:48:05;13.35;;;5.63;;
69714;SDS011;56981;53.532;49.398;2023-02-22T01:50:36;23.88;;;8.23;;
69714;SDS011;56981;53.532;49.398;2023-02-22T01:53:25;11.85;;;4.13;;
69714;SDS011;56981;53.532;49.398;2023-02-22T01:55:56;6.15;;;3.70;;
69714;SDS011;56981;53.532;49.398;2023-02-22T01:58:23;12.25;;;5.65;;
69714;SDS011;56981;53.532;49.398;2023-02-22T02:00:53;16.42;;;6.35;;
69714;SDS011;56981;53.532;49.398;2023-02-22T02:03:21;12.25;;;5.55;;
69714;SDS011;56981;53.532;49.398;2023-02-22T02:05:52;15.75;;;6.93;;
69714;SDS011;56981;53.532;49.398;2023-02-22T02:11:15;17.92;;;6.30;;
69714;SDS011;56981;53.532;49.398;2023-02-22T02:13:48;17.88;;;6.60;;
69714;SDS011;56981;53.532;49.398;2023-02-22T02:16:16;13.80;;;6.55;;
69714;SDS011;56981;53.532;49.398;2023-02-22T02:18:43;16.92;;;6.05;;
69714;SDS011;56981;53.532;49.398;2023-02-22T02:21:16;15.93;;;6.47;;
69714;SDS011;56981;53.532;49.398;2023-02-22T02:27:10;13.43;;;5.53;;
69714;SDS011;56981;53.532;49.398;2023-02-22T02:32:34;13.40;;;5.43;;
69714;SDS011;56981;53.532;49.398;2023-02-22T02:41:46;9.10;;;3.75;;
69714;SDS011;56981;53.532;49.398;2023-02-22T02:44:06;11.00;;;4.30;;
69714;SDS011;56981;53.532;49.398;2023-02-22T02:46:43;10.23;;;3.85;;
69714;SDS011;56981;53.532;49.398;2023-02-22T02:49:47;12.98;;;4.68;;
69714;SDS011;56981;53.532;49.398;2023-02-22T02:52:20;3.80;;;2.58;;
69714;SDS011;56981;53.532;49.398;2023-02-22T02:54:50;12.63;;;5.90;;
69714;SDS011;56981;53.532;49.398;2023-02-22T02:57:17;8.25;;;3.28;;
69714;SDS011;56981;53.532;49.398;2023-02-22T02:59:43;9.25;;;4.97;;
69714;SDS011;56981;53.532;49.398;2023-02-22T03:21:32;14.40;;;6.00;;
69714;SDS011;56981;53.532;49.398;2023-02-22T03:24:24;22.50;;;7.55;;
69714;SDS011;56981;53.532;49.398;2023-02-22T03:27:19;10.55;;;4.50;;
69714;SDS011;56981;53.532;49.398;2023-02-22T03:29:53;7.75;;;3.63;;
69714;SDS011;56981;53.532;49.398;2023-02-22T03:32:26;9.10;;;4.47;;
69714;SDS011;56981;53.532;49.398;2023-02-22T03:34:57;6.45;;;3.70;;
69714;SDS011;56981;53.532;49.398;2023-02-22T03:37:31;7.63;;;3.92;;
69714;SDS011;56981;53.532;49.398;2023-02-22T03:40:02;7.30;;;3.50;;
69714;SDS011;56981;53.532;49.398;2023-02-22T03:42:45;7.55;;;3.75;;
69714;SDS011;56981;53.532;49.398;2023-02-22T03:45:15;11.55;;;4.18;;
69714;SDS011;56981;53.532;49.398;2023-02-22T03:47:48;6.57;;;3.85;;
69714;SDS011;56981;53.532;49.398;2023-02-22T03:50:31;7.03;;;4.03;;
69714;SDS011;56981;53.532;49.398;2023-02-22T03:53:00;7.10;;;3.30;;
69714;SDS011;56981;53.532;49.398;2023-02-22T03:55:27;5.35;;;2.83;;
69714;SDS011;56981;53.532;49.398;2023-02-22T03:57:54;4.90;;;2.03;;
69714;SDS011;56981;53.532;49.398;2023-02-22T04:00:25;6.97;;;3.25;;
69714;SDS011;56981;53.532;49.398;2023-02-22T04:02:54;4.35;;;2.38;;
69714;SDS011;56981;53.532;49.398;2023-02-22T04:05:20;4.75;;;3.08;;
69714;SDS011;56981;53.532;49.398;2023-02-22T04:07:46;6.13;;;3.15;;
69714;SDS011;56981;53.532;49.398;2023-02-22T04:10:13;5.60;;;3.13;;
69714;SDS011;56981;53.532;49.398;2023-02-22T04:12:40;4.95;;;3.13;;
69714;SDS011;56981;53.532;49.398;2023-02-22T04:15:07;6.28;;;2.78;;
69714;SDS011;56981;53.532;49.398;2023-02-22T04:17:34;5.45;;;3.20;;
69714;SDS011;56981;53.532;49.398;2023-02-22T04:20:00;4.55;;;2.90;;
69714;SDS011;56981;53.532;49.398;2023-02-22T04:22:26;4.97;;;2.33;;
69714;SDS011;56981;53.532;49.398;2023-02-22T04:24:52;3.85;;;2.38;;
69714;SDS011;56981;53.532;49.398;2023-02-22T04:27:18;4.95;;;2.75;;
69714;SDS011;56981;53.532;49.398;2023-02-22T04:29:44;5.07;;;2.78;;
69714;SDS011;56981;53.532;49.398;2023-02-22T04:32:10;3.72;;;1.77;;
69714;SDS011;56981;53.532;49.398;2023-02-22T04:34:37;3.88;;;2.08;;
69714;SDS011;56981;53.532;49.398;2023-02-22T04:37:04;3.15;;;2.33;;
69714;SDS011;56981;53.532;49.398;2023-02-22T04:39:30;4.20;;;2.33;;
69714;SDS011;56981;53.532;49.398;2023-02-22T04:41:56;3.80;;;2.22;;
69714;SDS011;56981;53.532;49.398;2023-02-22T04:44:22;5.97;;;3.00;;
69714;SDS011;56981;53.532;49.398;2023-02-22T04:46:48;2.60;;;1.75;;
69714;SDS011;56981;53.532;49.398;2023-02-22T04:49:14;5.47;;;2.45;;
69714;SDS011;56981;53.532;49.398;2023-02-22T04:51:40;3.58;;;1.63;;
69714;SDS011;56981;53.532;49.398;2023-02-22T04:54:07;5.03;;;2.85;;
69714;SDS011;56981;53.532;49.398;2023-02-22T04:56:33;3.92;;;2.55;;
69714;SDS011;56981;53.532;49.398;2023-02-22T04:58:59;5.97;;;2.88;;
69714;SDS011;56981;53.532;49.398;2023-02-22T05:01:29;6.78;;;3.60;;
69714;SDS011;56981;53.532;49.398;2023-02-22T05:03:58;7.45;;;3.25;;
69714;SDS011;56981;53.532;49.398;2023-02-22T05:06:26;6.15;;;2.90;;
69714;SDS011;56981;53.532;49.398;2023-02-22T05:08:52;7.15;;;2.85;;
69714;SDS011;56981;53.532;49.398;2023-02-22T05:11:18;5.75;;;3.10;;
69714;SDS011;56981;53.532;49.398;2023-02-22T05:13:44;6.30;;;3.25;;
69714;SDS011;56981;53.532;49.398;2023-02-22T05:16:11;5.68;;;3.42;;
69714;SDS011;56981;53.532;49.398;2023-02-22T05:18:37;6.55;;;4.07;;
69714;SDS011;56981;53.532;49.398;2023-02-22T05:21:03;4.95;;;3.00;;
69714;SDS011;56981;53.532;49.398;2023-02-22T05:23:30;7.38;;;3.17;;
69714;SDS011;56981;53.532;49.398;2023-02-22T05:25:56;6.30;;;2.47;;
69714;SDS011;56981;53.532;49.398;2023-02-22T05:28:22;7.90;;;3.30;;
69714;SDS011;56981;53.532;49.398;2023-02-22T05:30:49;7.60;;;3.55;;
69714;SDS011;56981;53.532;49.398;2023-02-22T05:33:15;6.25;;;3.38;;
69714;SDS011;56981;53.532;49.398;2023-02-22T05:35:41;9.80;;;3.78;;
69714;SDS011;56981;53.532;49.398;2023-02-22T05:38:09;6.60;;;3.47;;
69714;SDS011;56981;53.532;49.398;2023-02-22T05:40:39;5.45;;;2.97;;
69714;SDS011;56981;53.532;49.398;2023-02-22T05:43:06;4.25;;;2.45;;
69714;SDS011;56981;53.532;49.398;2023-02-22T05:45:33;4.40;;;2.45;;
69714;SDS011;56981;53.532;49.398;2023-02-22T05:48:00;4.93;;;2.90;;
69714;SDS011;56981;53.532;49.398;2023-02-22T05:50:27;6.40;;;2.60;;
69714;SDS011;56981;53.532;49.398;2023-02-22T05:52:54;3.95;;;2.03;;
69714;SDS011;56981;53.532;49.398;2023-02-22T05:55:21;3.03;;;1.77;;
69714;SDS011;56981;53.532;49.398;2023-02-22T05:57:48;6.53;;;3.30;;
69714;SDS011;56981;53.532;49.398;2023-02-22T06:00:16;6.03;;;2.60;;
69714;SDS011;56981;53.532;49.398;2023-02-22T06:02:44;4.57;;;2.58;;
69714;SDS011;56981;53.532;49.398;2023-02-22T06:05:11;4.15;;;2.75;;
69714;SDS011;56981;53.532;49.398;2023-02-22T06:07:37;5.07;;;2.70;;
69714;SDS011;56981;53.532;49.398;2023-02-22T06:10:03;3.30;;;2.47;;
69714;SDS011;56981;53.532;49.398;2023-02-22T06:12:29;3.17;;;2.63;;
69714;SDS011;56981;53.532;49.398;2023-02-22T06:14:55;3.85;;;2.30;;
69714;SDS011;56981;53.532;49.398;2023-02-22T06:17:22;4.70;;;2.78;;
69714;SDS011;56981;53.532;49.398;2023-02-22T06:19:48;6.00;;;2.70;;
69714;SDS011;56981;53.532;49.398;2023-02-22T06:22:15;3.78;;;1.90;;
69714;SDS011;56981;53.532;49.398;2023-02-22T06:24:42;3.13;;;2.75;;
69714;SDS011;56981;53.532;49.398;2023-02-22T06:27:08;4.13;;;2.42;;
69714;SDS011;56981;53.532;49.398;2023-02-22T06:29:35;2.70;;;2.10;;
69714;SDS011;56981;53.532;49.398;2023-02-22T06:32:01;3.20;;;2.45;;
69714;SDS011;56981;53.532;49.398;2023-02-22T06:34:27;5.55;;;2.60;;
69714;SDS011;56981;53.532;49.398;2023-02-22T06:36:53;5.07;;;2.75;;
69714;SDS011;56981;53.532;49.398;2023-02-22T06:39:22;4.95;;;3.25;;
69714;SDS011;56981;53.532;49.398;2023-02-22T06:41:50;3.58;;;2.03;;
69714;SDS011;56981;53.532;49.398;2023-02-22T06:44:16;4.15;;;2.25;;
69714;SDS011;56981;53.532;49.398;2023-02-22T06:46:46;3.63;;;2.25;;
69714;SDS011;56981;53.532;49.398;2023-02-22T06:49:15;4.15;;;2.60;;
69714;SDS011;56981;53.532;49.398;2023-02-22T06:51:42;5.40;;;2.65;;
69714;SDS011;56981;53.532;49.398;2023-02-22T06:54:08;4.13;;;2.58;;
69714;SDS011;56981;53.532;49.398;2023-02-22T06:56:37;3.22;;;2.47;;
69714;SDS011;56981;53.532;49.398;2023-02-22T06:59:03;6.07;;;2.67;;
69714;SDS011;56981;53.532;49.398;2023-02-22T07:01:29;3.58;;;2.08;;
69714;SDS011;56981;53.532;49.398;2023-02-22T07:03:55;4.72;;;2.13;;
69714;SDS011;56981;53.532;49.398;2023-02-22T07:06:24;5.80;;;2.88;;
69714;SDS011;56981;53.532;49.398;2023-02-22T07:08:50;4.15;;;2.50;;
69714;SDS011;56981;53.532;49.398;2023-02-22T07:11:16;4.32;;;2.40;;
69714;SDS011;56981;53.532;49.398;2023-02-22T07:13:42;5.35;;;2.67;;
69714;SDS011;56981;53.532;49.398;2023-02-22T07:16:09;3.40;;;2.58;;
69714;SDS011;56981;53.532;49.398;2023-02-22T07:18:35;5.10;;;2.38;;
69714;SDS011;56981;53.532;49.398;2023-02-22T07:21:01;4.03;;;2.78;;
69714;SDS011;56981;53.532;49.398;2023-02-22T07:23:27;5.65;;;3.05;;
69714;SDS011;56981;53.532;49.398;2023-02-22T07:25:53;4.80;;;2.53;;
69714;SDS011;56981;53.532;49.398;2023-02-22T07:28:20;3.83;;;2.35;;
69714;SDS011;56981;53.532;49.398;2023-02-22T07:30:46;3.70;;;2.80;;
69714;SDS011;56981;53.532;49.398;2023-02-22T07:33:12;4.88;;;3.22;;
69714;SDS011;56981;53.532;49.398;2023-02-22T07:35:42;4.07;;;2.45;;
69714;SDS011;56981;53.532;49.398;2023-02-22T07:38:11;5.75;;;3.03;;
69714;SDS011;56981;53.532;49.398;2023-02-22T07:40:40;5.75;;;2.97;;
69714;SDS011;56981;53.532;49.398;2023-02-22T07:45:42;3.72;;;2.08;;
69714;SDS011;56981;53.532;49.398;2023-02-22T07:48:09;4.63;;;2.97;;
69714;SDS011;56981;53.532;49.398;2023-02-22T07:50:37;5.07;;;3.08;;
69714;SDS011;56981;53.532;49.398;2023-02-22T07:53:05;4.53;;;2.67;;
69714;SDS011;56981;53.532;49.398;2023-02-22T07:55:35;6.90;;;3.63;;
69714;SDS011;56981;53.532;49.398;2023-02-22T07:58:03;15.02;;;4.45;;
69714;SDS011;56981;53.532;49.398;2023-02-22T08:00:32;7.32;;;4.18;;
69714;SDS011;56981;53.532;49.398;2023-02-22T08:03:02;7.00;;;3.97;;
69714;SDS011;56981;53.532;49.398;2023-02-22T08:05:32;5.88;;;3.22;;
69714;SDS011;56981;53.532;49.398;2023-02-22T08:08:00;8.10;;;3.70;;
69714;SDS011;56981;53.532;49.398;2023-02-22T08:10:27;5.13;;;3.10;;
69714;SDS011;56981;53.532;49.398;2023-02-22T08:12:54;5.10;;;3.03;;
69714;SDS011;56981;53.532;49.398;2023-02-22T08:15:28;5.63;;;3.05;;
69714;SDS011;56981;53.532;49.398;2023-02-22T08:17:58;3.63;;;2.30;;
69714;SDS011;56981;53.532;49.398;2023-02-22T08:20:25;4.45;;;2.53;;
69714;SDS011;56981;53.532;49.398;2023-02-22T08:22:53;5.50;;;2.97;;
69714;SDS011;56981;53.532;49.398;2023-02-22T08:25:20;5.10;;;3.45;;
69714;SDS011;56981;53.532;49.398;2023-02-22T08:27:49;3.85;;;2.78;;
69714;SDS011;56981;53.532;49.398;2023-02-22T08:30:17;5.20;;;3.08;;
69714;SDS011;56981;53.532;49.398;2023-02-22T08:32:48;7.70;;;3.85;;
69714;SDS011;56981;53.532;49.398;2023-02-22T08:35:16;9.50;;;4.03;;
69714;SDS011;56981;53.532;49.398;2023-02-22T08:37:51;8.68;;;4.55;;
69714;SDS011;56981;53.532;49.398;2023-02-22T08:40:20;9.50;;;5.03;;
69714;SDS011;56981;53.532;49.398;2023-02-22T08:42:48;8.55;;;3.78;;
69714;SDS011;56981;53.532;49.398;2023-02-22T08:45:14;9.15;;;4.10;;
69714;SDS011;56981;53.532;49.398;2023-02-22T08:47:41;5.07;;;2.95;;
69714;SDS011;56981;53.532;49.398;2023-02-22T08:50:08;4.65;;;2.58;;
69714;SDS011;56981;53.532;49.398;2023-02-22T08:52:40;4.30;;;2.72;;
69714;SDS011;56981;53.532;49.398;2023-02-22T08:55:06;3.90;;;2.47;;
69714;SDS011;56981;53.532;49.398;2023-02-22T08:57:32;3.88;;;3.05;;
69714;SDS011;56981;53.532;49.398;2023-02-22T08:59:58;7.82;;;4.35;;
69714;SDS011;56981;53.532;49.398;2023-02-22T09:02:24;4.22;;;3.03;;
69714;SDS011;56981;53.532;49.398;2023-02-22T09:04:51;7.50;;;4.18;;
69714;SDS011;56981;53.532;49.398;2023-02-22T09:07:17;7.45;;;4.20;;
69714;SDS011;56981;53.532;49.398;2023-02-22T09:09:44;4.03;;;2.92;;
69714;SDS011;56981;53.532;49.398;2023-02-22T09:12:10;6.53;;;3.47;;
69714;SDS011;56981;53.532;49.398;2023-02-22T09:14:37;6.72;;;3.40;;
69714;SDS011;56981;53.532;49.398;2023-02-22T09:17:03;3.80;;;2.38;;
69714;SDS011;56981;53.532;49.398;2023-02-22T09:19:29;3.63;;;1.98;;
69714;SDS011;56981;53.532;49.398;2023-02-22T09:21:57;5.55;;;3.75;;
69714;SDS011;56981;53.532;49.398;2023-02-22T09:24:24;7.32;;;3.88;;
69714;SDS011;56981;53.532;49.398;2023-02-22T09:26:51;8.65;;;4.35;;
69714;SDS011;56981;53.532;49.398;2023-02-22T09:29:21;8.85;;;3.67;;
69714;SDS011;56981;53.532;49.398;2023-02-22T09:31:52;5.32;;;3.13;;
69714;SDS011;56981;53.532;49.398;2023-02-22T09:34:20;2.47;;;1.77;;
69714;SDS011;56981;53.532;49.398;2023-02-22T09:36:54;3.47;;;2.17;;
69714;SDS011;56981;53.532;49.398;2023-02-22T09:39:22;5.03;;;3.25;;
69714;SDS011;56981;53.532;49.398;2023-02-22T09:44:47;6.43;;;3.92;;
69714;SDS011;56981;53.532;49.398;2023-02-22T09:47:23;14.90;;;5.65;;
69714;SDS011;56981;53.532;49.398;2023-02-22T09:49:59;4.15;;;2.50;;
69714;SDS011;56981;53.532;49.398;2023-02-22T09:52:42;8.70;;;4.28;;
69714;SDS011;56981;53.532;49.398;2023-02-22T09:55:37;11.35;;;5.45;;
69714;SDS011;56981;53.532;49.398;2023-02-22T09:58:14;7.72;;;3.63;;
69714;SDS011;56981;53.532;49.398;2023-02-22T10:00:50;7.15;;;3.40;;
69714;SDS011;56981;53.532;49.398;2023-02-22T10:03:23;4.25;;;2.90;;
69714;SDS011;56981;53.532;49.398;2023-02-22T10:08:35;2.97;;;2.05;;
69714;SDS011;56981;53.532;49.398;2023-02-22T10:19:26;8.88;;;2.75;;
69714;SDS011;56981;53.532;49.398;2023-02-22T10:25:00;4.05;;;2.38;;
69714;SDS011;56981;53.532;49.398;2023-02-22T10:27:31;5.10;;;2.45;;
69714;SDS011;56981;53.532;49.398;2023-02-22T10:32:49;4.63;;;2.55;;
69714;SDS011;56981;53.532;49.398;2023-02-22T10:35:26;5.80;;;3.40;;
69714;SDS011;56981;53.532;49.398;2023-02-22T10:38:16;4.47;;;2.63;;
69714;SDS011;56981;53.532;49.398;2023-02-22T10:40:47;5.78;;;2.20;;
69714;SDS011;56981;53.532;49.398;2023-02-22T10:43:17;5.32;;;2.83;;
69714;SDS011;56981;53.532;49.398;2023-02-22T10:45:44;4.72;;;3.08;;
69714;SDS011;56981;53.532;49.398;2023-02-22T10:48:14;7.18;;;3.70;;
69714;SDS011;56981;53.532;49.398;2023-02-22T10:50:43;6.75;;;4.00;;
69714;SDS011;56981;53.532;49.398;2023-02-22T10:53:11;5.82;;;3.45;;
69714;SDS011;56981;53.532;49.398;2023-02-22T10:58:50;6.78;;;3.35;;
69714;SDS011;56981;53.532;49.398;2023-02-22T11:06:48;4.72;;;2.72;;
69714;SDS011;56981;53.532;49.398;2023-02-22T11:09:44;5.45;;;3.55;;
69714;SDS011;56981;53.532;49.398;2023-02-22T11:12:17;6.07;;;3.30;;
69714;SDS011;56981;53.532;49.398;2023-02-22T11:14:54;4.13;;;2.65;;
69714;SDS011;56981;53.532;49.398;2023-02-22T11:17:30;6.50;;;3.17;;
69714;SDS011;56981;53.532;49.398;2023-02-22T11:19:58;5.18;;;3.25;;
69714;SDS011;56981;53.532;49.398;2023-02-22T11:22:26;6.25;;;3.38;;
69714;SDS011;56981;53.532;49.398;2023-02-22T11:25:17;4.75;;;3.22;;
69714;SDS011;56981;53.532;49.398;2023-02-22T11:27:46;20.08;;;8.80;;
69714;SDS011;56981;53.532;49.398;2023-02-22T11:30:29;5.85;;;3.67;;
69714;SDS011;56981;53.532;49.398;2023-02-22T11:38:25;4.88;;;3.33;;
69714;SDS011;56981;53.532;49.398;2023-02-22T11:41:13;9.48;;;5.38;;
69714;SDS011;56981;53.532;49.398;2023-02-22T11:43:45;9.23;;;5.13;;
69714;SDS011;56981;53.532;49.398;2023-02-22T11:46:16;9.88;;;5.60;;
69714;SDS011;56981;53.532;49.398;2023-02-22T11:48:55;8.90;;;4.68;;
69714;SDS011;56981;53.532;49.398;2023-02-22T11:52:04;10.85;;;5.72;;
69714;SDS011;56981;53.532;49.398;2023-02-22T11:55:02;8.15;;;4.45;;
69714;SDS011;56981;53.532;49.398;2023-02-22T11:57:53;11.27;;;5.80;;
69714;SDS011;56981;53.532;49.398;2023-02-22T12:05:51;12.77;;;5.60;;
69714;SDS011;56981;53.532;49.398;2023-02-22T12:08:34;11.43;;;5.03;;
69714;SDS011;56981;53.532;49.398;2023-02-22T12:11:19;15.82;;;6.90;;
69714;SDS011;56981;53.532;49.398;2023-02-22T12:14:14;10.48;;;5.25;;
69714;SDS011;56981;53.532;49.398;2023-02-22T12:22:04;18.13;;;6.57;;
69714;SDS011;56981;53.532;49.398;2023-02-22T12:27:32;14.75;;;7.00;;
69714;SDS011;56981;53.532;49.398;2023-02-22T12:30:31;18.52;;;7.90;;
69714;SDS011;56981;53.532;49.398;2023-02-22T12:33:05;15.43;;;6.95;;
69714;SDS011;56981;53.532;49.398;2023-02-22T12:35:51;17.25;;;7.20;;
69714;SDS011;56981;53.532;49.398;2023-02-22T12:38:22;23.52;;;9.88;;
69714;SDS011;56981;53.532;49.398;2023-02-22T12:44:09;24.95;;;8.98;;
69714;SDS011;56981;53.532;49.398;2023-02-22T12:46:47;21.80;;;9.52;;
69714;SDS011;56981;53.532;49.398;2023-02-22T12:52:13;23.83;;;8.98;;
69714;SDS011;56981;53.532;49.398;2023-02-22T12:54:50;22.90;;;9.82;;
69714;SDS011;56981;53.532;49.398;2023-02-22T13:00:18;26.40;;;10.50;;
69714;SDS011;56981;53.532;49.398;2023-02-22T13:05:50;25.90;;;11.40;;
69714;SDS011;56981;53.532;49.398;2023-02-22T13:25:29;25.70;;;12.20;;
69714;SDS011;56981;53.532;49.398;2023-02-22T13:28:13;18.30;;;8.07;;
69714;SDS011;56981;53.532;49.398;2023-02-22T13:33:48;22.15;;;9.57;;
69714;SDS011;56981;53.532;49.398;2023-02-22T13:53:14;27.98;;;9.77;;
69714;SDS011;56981;53.532;49.398;2023-02-22T13:55:51;26.40;;;9.75;;
69714;SDS011;56981;53.532;49.398;2023-02-22T13:58:21;34.70;;;13.20;;
69714;SDS011;56981;53.532;49.398;2023-02-22T14:00:58;20.23;;;8.88;;
69714;SDS011;56981;53.532;49.398;2023-02-22T14:03:30;24.38;;;9.57;;
69714;SDS011;56981;53.532;49.398;2023-02-22T14:06:03;16.35;;;6.93;;
69714;SDS011;56981;53.532;49.398;2023-02-22T14:16:21;29.88;;;10.63;;
69714;SDS011;56981;53.532;49.398;2023-02-22T14:19:02;36.88;;;14.77;;
69714;SDS011;56981;53.532;49.398;2023-02-22T14:24:46;31.90;;;12.95;;
69714;SDS011;56981;53.532;49.398;2023-02-22T14:42:07;37.97;;;13.35;;
69714;SDS011;56981;53.532;49.398;2023-02-22T14:44:42;24.42;;;8.98;;
69714;SDS011;56981;53.532;49.398;2023-02-22T14:47:18;25.13;;;12.35;;
69714;SDS011;56981;53.532;49.398;2023-02-22T14:49:53;25.05;;;9.88;;
69714;SDS011;56981;53.532;49.398;2023-02-22T14:52:29;24.83;;;10.65;;
69714;SDS011;56981;53.532;49.398;2023-02-22T14:55:10;30.50;;;13.30;;
69714;SDS011;56981;53.532;49.398;2023-02-22T15:02:55;35.25;;;13.27;;
69714;SDS011;56981;53.532;49.398;2023-02-22T15:05:26;19.27;;;9.05;;
69714;SDS011;56981;53.532;49.398;2023-02-22T15:08:00;23.30;;;9.73;;
69714;SDS011;56981;53.532;49.398;2023-02-22T15:10:41;30.60;;;12.63;;
69714;SDS011;56981;53.532;49.398;2023-02-22T15:15:47;23.73;;;8.95;;
69714;SDS011;56981;53.532;49.398;2023-02-22T15:18:21;32.17;;;11.73;;
69714;SDS011;56981;53.532;49.398;2023-02-22T15:20:52;23.50;;;9.57;;
69714;SDS011;56981;53.532;49.398;2023-02-22T15:23:27;37.22;;;14.23;;
69714;SDS011;56981;53.532;49.398;2023-02-22T15:25:55;22.08;;;8.30;;
69714;SDS011;56981;53.532;49.398;2023-02-22T15:28:23;24.42;;;10.23;;
69714;SDS011;56981;53.532;49.398;2023-02-22T15:34:08;17.35;;;8.90;;
69714;SDS011;56981;53.532;49.398;2023-02-22T15:36:42;36.58;;;12.93;;
69714;SDS011;56981;53.532;49.398;2023-02-22T15:42:11;42.50;;;16.10;;
69714;SDS011;56981;53.532;49.398;2023-02-22T15:44:46;27.83;;;10.48;;
69714;SDS011;56981;53.532;49.398;2023-02-22T15:47:18;28.80;;;9.23;;
69714;SDS011;56981;53.532;49.398;2023-02-22T15:53:22;18.88;;;8.02;;
69714;SDS011;56981;53.532;49.398;2023-02-22T15:55:54;38.65;;;13.98;;
69714;SDS011;56981;53.532;49.398;2023-02-22T15:58:25;35.05;;;12.57;;
69714;SDS011;56981;53.532;49.398;2023-02-22T16:01:00;27.33;;;11.35;;
69714;SDS011;56981;53.532;49.398;2023-02-22T16:03:32;28.85;;;11.77;;
69714;SDS011;56981;53.532;49.398;2023-02-22T16:06:11;39.13;;;14.90;;
69714;SDS011;56981;53.532;49.398;2023-02-22T16:08:50;39.40;;;13.45;;
69714;SDS011;56981;53.532;49.398;2023-02-22T16:11:22;28.48;;;10.93;;
69714;SDS011;56981;53.532;49.398;2023-02-22T16:13:58;16.90;;;8.68;;
69714;SDS011;56981;53.532;49.398;2023-02-22T16:16:27;21.85;;;7.75;;
69714;SDS011;56981;53.532;49.398;2023-02-22T16:22:04;25.83;;;10.68;;
69714;SDS011;56981;53.532;49.398;2023-02-22T16:24:38;27.85;;;10.63;;
69714;SDS011;56981;53.532;49.398;2023-02-22T16:27:25;29.30;;;11.80;;
69714;SDS011;56981;53.532;49.398;2023-02-22T16:32:46;14.50;;;5.88;;
69714;SDS011;56981;53.532;49.398;2023-02-22T16:35:14;24.70;;;8.63;;
69714;SDS011;56981;53.532;49.398;2023-02-22T16:37:46;30.77;;;12.50;;
69714;SDS011;56981;53.532;49.398;2023-02-22T16:40:33;25.80;;;10.15;;
69714;SDS011;56981;53.532;49.398;2023-02-22T16:43:05;22.67;;;8.73;;
69714;SDS011;56981;53.532;49.398;2023-02-22T16:45:33;28.90;;;10.13;;
69714;SDS011;56981;53.532;49.398;2023-02-22T16:48:00;19.25;;;7.45;;
69714;SDS011;56981;53.532;49.398;2023-02-22T16:50:35;29.98;;;12.43;;
69714;SDS011;56981;53.532;49.398;2023-02-22T16:53:01;33.50;;;13.95;;
69714;SDS011;56981;53.532;49.398;2023-02-22T16:55:30;38.97;;;14.63;;
69714;SDS011;56981;53.532;49.398;2023-02-22T16:57:56;22.88;;;9.75;;
69714;SDS011;56981;53.532;49.398;2023-02-22T17:00:25;25.63;;;9.88;;
69714;SDS011;56981;53.532;49.398;2023-02-22T17:02:59;24.08;;;8.70;;
69714;SDS011;56981;53.532;49.398;2023-02-22T17:05:31;28.48;;;11.55;;
69714;SDS011;56981;53.532;49.398;2023-02-22T17:08:09;19.55;;;9.55;;
69714;SDS011;56981;53.532;49.398;2023-02-22T17:10:43;31.05;;;11.40;;
69714;SDS011;56981;53.532;49.398;2023-02-22T17:13:19;33.22;;;11.05;;
69714;SDS011;56981;53.532;49.398;2023-02-22T17:15:52;27.48;;;10.73;;
69714;SDS011;56981;53.532;49.398;2023-02-22T17:18:21;31.90;;;13.73;;
69714;SDS011;56981;53.532;49.398;2023-02-22T17:20:52;31.45;;;11.80;;
69714;SDS011;56981;53.532;49.398;2023-02-22T17:23:22;27.85;;;11.80;;
69714;SDS011;56981;53.532;49.398;2023-02-22T17:26:01;20.58;;;8.10;;
69714;SDS011;56981;53.532;49.398;2023-02-22T17:28:28;24.08;;;9.52;;
69714;SDS011;56981;53.532;49.398;2023-02-22T17:30:56;32.47;;;12.82;;
69714;SDS011;56981;53.532;49.398;2023-02-22T17:33:26;27.60;;;11.85;;
69714;SDS011;56981;53.532;49.398;2023-02-22T17:35:55;29.00;;;11.52;;
69714;SDS011;56981;53.532;49.398;2023-02-22T17:38:23;35.42;;;10.65;;
69714;SDS011;56981;53.532;49.398;2023-02-22T17:40:51;22.98;;;9.38;;
69714;SDS011;56981;53.532;49.398;2023-02-22T17:43:19;29.75;;;11.93;;
69714;SDS011;56981;53.532;49.398;2023-02-22T17:45:45;29.27;;;10.23;;
69714;SDS011;56981;53.532;49.398;2023-02-22T17:48:13;25.10;;;10.95;;
69714;SDS011;56981;53.532;49.398;2023-02-22T17:50:41;26.42;;;10.63;;
69714;SDS011;56981;53.532;49.398;2023-02-22T17:53:08;29.50;;;10.63;;